Time;durP1;ratioP1;P1;durP2;ratioP2;P2;SDS_P1;SDS_P2;PMS_P1;PMS_P2;Temp;Humidity;BMP_temperature;BMP_pressure;BME280_temperature;BME280_humidity;BME280_pressure;Samples;Min_cycle;Max_cycle;Signal;HPM_P1;HPM_P2
2023/12/22 00:03:04;;;;;;;2.10;0.10;;;;;;;6.85;74.60;98845.50;10256139;28;20047;-85
2023/12/22 00:08:06;;;;;;;0.13;0.00;;;;;;;6.94;73.41;98879.91;10250943;28;20081;-85
2023/12/22 00:13:08;;;;;;;1.13;0.00;;;;;;;6.92;73.53;98887.28;10247504;28;20036;-84
2023/12/22 00:18:09;;;;;;;0.98;0.03;;;;;;;6.46;75.16;98903.59;10265218;28;20074;-85
2023/12/22 00:23:11;;;;;;;1.08;0.00;;;;;;;6.28;76.23;98898.63;10233266;28;20051;-85
2023/12/22 00:28:12;;;;;;;0.55;0.00;;;;;;;6.21;76.77;98920.91;10267968;28;20062;-85
2023/12/22 00:33:14;;;;;;;0.10;0.10;;;;;;;6.04;77.74;98928.22;10282174;28;20043;-85
2023/12/22 00:38:15;;;;;;;0.00;0.00;;;;;;;5.93;77.57;98884.97;10286965;28;20047;-85
2023/12/22 00:43:17;;;;;;;1.80;0.00;;;;;;;5.88;77.89;98883.84;10281907;28;20051;-85
2023/12/22 00:48:18;;;;;;;1.77;0.00;;;;;;;5.92;78.25;98867.31;10299366;28;20055;-86
2023/12/22 00:53:20;;;;;;;3.03;0.30;;;;;;;6.01;78.78;98856.59;10282944;28;20051;-86
2023/12/22 00:58:22;;;;;;;1.77;0.10;;;;;;;6.14;77.59;98870.94;10272903;28;20051;-86
2023/12/22 01:03:23;;;;;;;1.52;0.43;;;;;;;6.33;77.74;98896.22;10264674;28;20122;-86
2023/12/22 01:08:25;;;;;;;2.80;0.20;;;;;;;6.50;77.46;98928.06;10267577;28;20067;-86
2023/12/22 01:13:26;;;;;;;3.38;0.10;;;;;;;6.66;77.38;98975.13;10265768;28;20936;-86
2023/12/22 01:18:29;;;;;;;2.05;0.10;;;;;;;6.36;78.50;99020.47;10271733;28;20447;-85
2023/12/22 01:23:31;;;;;;;1.80;0.10;;;;;;;5.94;78.64;99035.13;10255262;28;20039;-86
2023/12/22 01:28:34;;;;;;;0.45;0.13;;;;;;;5.60;79.02;99024.88;10295453;28;20039;-86
2023/12/22 01:33:36;;;;;;;0.10;0.00;;;;;;;5.50;79.72;99038.44;10266779;28;20062;-85
2023/12/22 01:38:37;;;;;;;1.38;0.00;;;;;;;5.37;79.66;98999.03;10266179;28;20597;-85
2023/12/22 01:43:39;;;;;;;0.43;0.00;;;;;;;5.30;79.43;99000.75;10261141;28;20094;-85
2023/12/22 01:48:40;;;;;;;0.10;0.00;;;;;;;5.26;79.58;98994.13;10256647;28;20133;-84
2023/12/22 01:53:42;;;;;;;0.85;0.10;;;;;;;5.23;79.54;98989.13;10262849;28;20612;-85
2023/12/22 01:58:44;;;;;;;1.48;0.00;;;;;;;5.19;80.54;99011.78;10252301;28;20043;-85
2023/12/22 02:03:52;;;;;;;0.50;0.20;;;;;;;5.15;80.99;99003.31;10263989;28;20051;-85
2023/12/22 02:08:54;;;;;;;2.92;1.13;;;;;;;5.17;81.06;99011.97;10268303;28;20051;-85
2023/12/22 02:13:55;;;;;;;0.00;0.00;;;;;;;5.17;81.08;98998.66;10242632;28;20130;-86
2023/12/22 02:18:59;;;;;;;2.55;0.57;;;;;;;5.24;80.76;98996.94;10274679;28;20462;-86
2023/12/22 02:24:00;;;;;;;0.17;0.10;;;;;;;5.17;81.14;98977.34;10269183;28;20587;-86
2023/12/22 02:29:02;;;;;;;1.65;0.00;;;;;;;5.14;80.60;98983.84;10266161;28;20047;-86
2023/12/22 02:34:10;;;;;;;1.88;0.20;;;;;;;5.22;80.84;98990.97;10269925;28;20474;-86
2023/12/22 02:39:13;;;;;;;1.77;0.00;;;;;;;5.32;79.90;98993.41;10241718;28;20043;-86
2023/12/22 02:44:15;;;;;;;0.93;0.10;;;;;;;5.30;79.91;99017.56;10239260;28;20035;-84
2023/12/22 02:49:18;;;;;;;1.02;0.20;;;;;;;5.21;79.73;99023.09;10263969;28;20450;-84
2023/12/22 02:54:20;;;;;;;0.70;0.47;;;;;;;5.14;80.36;98983.84;10290943;28;20517;-84
2023/12/22 02:59:21;;;;;;;0.00;0.00;;;;;;;5.03;80.65;98986.06;10304085;28;20054;-85
2023/12/22 03:04:23;;;;;;;0.75;0.20;;;;;;;4.94;81.03;98983.47;10304823;28;20446;-86
2023/12/22 03:09:24;;;;;;;0.10;0.00;;;;;;;5.02;80.06;98982.59;10294406;28;20051;-86
2023/12/22 03:14:26;;;;;;;0.10;0.00;;;;;;;5.20;79.83;99016.97;10279009;28;20051;-85
2023/12/22 03:19:27;;;;;;;1.58;0.00;;;;;;;5.12;80.72;98995.69;10299236;28;20078;-85
2023/12/22 03:24:29;;;;;;;0.20;0.00;;;;;;;5.13;80.55;98984.88;10277990;28;20107;-85
2023/12/22 03:29:31;;;;;;;1.65;0.28;;;;;;;5.03;80.58;98978.09;10283587;28;20454;-86
2023/12/22 03:34:32;;;;;;;2.25;0.00;;;;;;;5.05;80.57;98981.41;10269393;28;20051;-86
2023/12/22 03:39:34;;;;;;;0.80;0.10;;;;;;;5.19;79.91;98999.31;10273451;28;20580;-86
2023/12/22 03:44:35;;;;;;;0.03;0.00;;;;;;;5.39;79.19;99001.53;10259315;28;20047;-84
2023/12/22 03:49:37;;;;;;;2.83;0.30;;;;;;;5.45;80.62;98972.34;10260895;28;20061;-84
2023/12/22 03:54:39;;;;;;;0.60;0.20;;;;;;;5.56;81.05;98989.75;10256026;28;20055;-84
2023/12/22 03:59:40;;;;;;;3.92;0.20;;;;;;;5.65;80.87;98972.72;10259456;28;20077;-84
2023/12/22 04:04:42;;;;;;;7.95;1.85;;;;;;;5.73;80.77;98977.16;10267660;28;20436;-85
2023/12/22 04:09:44;;;;;;;2.00;0.40;;;;;;;5.90;79.92;98978.66;10263389;28;20046;-84
2023/12/22 04:14:45;;;;;;;5.57;0.60;;;;;;;6.11;79.28;99003.84;10261445;28;20042;-84
2023/12/22 04:19:47;;;;;;;4.22;0.50;;;;;;;6.27;79.05;98993.03;10242489;28;20504;-84
2023/12/22 04:24:48;;;;;;;1.08;0.10;;;;;;;6.43;78.77;99013.38;10261742;28;20050;-84
2023/12/22 04:29:50;;;;;;;1.67;0.32;;;;;;;6.48;78.81;99016.34;10270800;28;20146;-84
2023/12/22 04:34:52;;;;;;;1.30;0.20;;;;;;;6.58;78.87;98992.06;10279668;28;20083;-84
2023/12/22 04:39:53;;;;;;;5.30;0.60;;;;;;;6.58;79.15;99009.91;10286395;28;20050;-84
2023/12/22 04:44:55;;;;;;;1.05;0.30;;;;;;;6.59;79.14;99019.56;10304604;28;20050;-84
2023/12/22 04:49:56;;;;;;;0.80;0.20;;;;;;;6.66;78.76;99018.66;10304325;28;20039;-84
2023/12/22 04:54:58;;;;;;;1.75;0.25;;;;;;;6.56;79.20;99012.75;10281774;28;20122;-84
2023/12/22 04:59:59;;;;;;;4.50;0.65;;;;;;;6.57;78.91;99002.91;10299857;28;20257;-85
2023/12/22 05:05:03;;;;;;;1.42;0.40;;;;;;;6.78;78.77;99026.22;10285842;28;20043;-84
2023/12/22 05:10:05;;;;;;;5.38;1.13;;;;;;;6.64;78.89;99004.66;10309746;28;20047;-84
2023/12/22 05:15:07;;;;;;;3.17;0.90;;;;;;;6.49;79.86;99023.31;10288848;28;20043;-85
2023/12/22 05:20:09;;;;;;;4.72;0.50;;;;;;;6.49;79.73;99043.84;10301005;28;20081;-85
2023/12/22 05:25:13;;;;;;;3.53;0.30;;;;;;;6.57;79.02;99019.75;10314252;28;20047;-84
2023/12/22 05:30:14;;;;;;;1.58;0.30;;;;;;;6.55;79.11;98987.88;10287273;28;20098;-85
2023/12/22 05:35:16;;;;;;;1.65;0.40;;;;;;;6.33;79.01;99031.50;10312337;28;20050;-86
2023/12/22 05:40:18;;;;;;;2.80;0.30;;;;;;;6.13;79.52;99013.31;10277777;28;20051;-86
2023/12/22 05:45:20;;;;;;;3.58;0.30;;;;;;;6.16;79.86;99012.13;10264755;28;20055;-86
2023/12/22 05:50:21;;;;;;;4.22;0.73;;;;;;;6.26;79.42;99003.88;10254419;28;20055;-86
2023/12/22 05:55:23;;;;;;;5.72;0.40;;;;;;;6.35;79.34;99024.13;10278058;28;20038;-87
2023/12/22 06:00:26;;;;;;;6.63;0.40;;;;;;;6.41;78.96;98983.38;10277680;28;20046;-86
2023/12/22 06:05:27;;;;;;;4.00;0.50;;;;;;;6.62;78.59;99013.88;10262003;28;20043;-85
2023/12/22 06:10:29;;;;;;;6.25;0.73;;;;;;;6.81;76.95;99007.13;10259944;28;20473;-85
2023/12/22 06:15:31;;;;;;;3.83;0.20;;;;;;;6.97;75.92;99020.31;10243760;28;20055;-84
2023/12/22 06:20:32;;;;;;;3.38;0.52;;;;;;;7.15;74.11;99017.25;10256694;28;20046;-84
2023/12/22 06:25:34;;;;;;;5.60;0.45;;;;;;;7.12;74.84;99028.28;10257482;28;20125;-85
2023/12/22 06:30:35;;;;;;;7.30;1.42;;;;;;;7.04;75.24;99039.91;10276942;28;20043;-86
2023/12/22 06:35:37;;;;;;;3.95;0.57;;;;;;;6.99;75.10;99074.38;10274048;28;20498;-84
2023/12/22 06:40:39;;;;;;;6.97;0.40;;;;;;;7.07;75.67;99068.94;10269151;28;20039;-85
2023/12/22 06:45:41;;;;;;;5.68;0.30;;;;;;;7.15;75.70;99070.69;10281237;28;20031;-89
2023/12/22 06:50:44;;;;;;;5.22;0.85;;;;;;;7.23;75.38;99075.13;10278471;28;20048;-86
2023/12/22 06:55:46;;;;;;;2.40;0.40;;;;;;;7.34;75.00;99070.09;10267249;28;20122;-87
2023/12/22 07:00:48;;;;;;;5.70;0.65;;;;;;;7.47;73.67;99053.41;10307096;28;20054;-88
2023/12/22 07:05:50;;;;;;;5.38;0.30;;;;;;;7.65;73.48;99036.13;10274291;28;20059;-89
2023/12/22 07:21:18;;;;;;;5.15;0.63;;;;;;;8.15;68.66;99098.56;10244723;28;20050;-68
2023/12/22 07:26:21;;;;;;;6.60;0.57;;;;;;;7.71;70.49;99143.16;10235081;28;20055;-68
2023/12/22 07:31:22;;;;;;;13.02;1.08;;;;;;;7.71;70.76;99121.75;10219917;28;20051;-67
2023/12/22 07:36:24;;;;;;;10.18;1.88;;;;;;;7.97;69.98;99143.66;10218273;29;20059;-70
2023/12/22 07:41:26;;;;;;;2.42;0.30;;;;;;;8.29;69.45;99123.59;10234752;28;20551;-67
2023/12/22 07:46:28;;;;;;;5.22;0.35;;;;;;;8.44;68.49;99131.59;10237822;28;20038;-67
2023/12/22 07:51:29;;;;;;;9.68;0.50;;;;;;;8.59;68.42;99142.22;10238175;28;20059;-67
2023/12/22 07:56:31;;;;;;;6.75;0.93;;;;;;;8.69;68.12;99132.03;10236954;28;20081;-67
2023/12/22 08:01:32;;;;;;;4.78;0.40;;;;;;;8.81;67.80;99141.19;10223301;29;20115;-67
2023/12/22 08:06:35;;;;;;;2.38;1.02;;;;;;;8.92;68.29;99147.84;10242163;29;20047;-67
2023/12/22 08:11:37;;;;;;;4.25;0.77;;;;;;;9.05;67.86;99139.09;10250262;29;20059;-67
2023/12/22 08:16:38;;;;;;;3.50;0.40;;;;;;;9.16;66.90;99143.06;10266351;28;20075;-68
2023/12/22 08:21:42;;;;;;;6.22;0.60;;;;;;;9.38;67.01;99141.13;10250758;28;20040;-66
2023/12/22 08:26:47;;;;;;;;;;;;;;;9.41;67.08;99146.94;10259745;28;20057;-69
2023/12/22 08:31:49;;;;;;;3.08;0.40;;;;;;;9.26;67.20;99139.03;10258806;29;19926;-68
2023/12/22 08:36:51;;;;;;;2.63;0.30;;;;;;;8.90;68.38;99172.16;10244945;28;20388;-68
2023/12/22 08:41:53;;;;;;;2.10;0.52;;;;;;;8.43;69.25;99167.44;10249205;28;20141;-68
2023/12/22 08:46:54;;;;;;;4.80;0.17;;;;;;;8.46;69.83;99167.06;10237085;28;20051;-68
2023/12/22 08:51:56;;;;;;;1.30;0.20;;;;;;;8.52;69.89;99175.13;10251235;28;20099;-68
2023/12/22 08:56:57;;;;;;;0.20;0.00;;;;;;;8.30;70.45;99173.47;10279901;28;20070;-67
2023/12/22 09:01:59;;;;;;;3.67;0.10;;;;;;;8.30;70.54;99163.56;10290561;28;20039;-67
2023/12/22 09:07:01;;;;;;;1.67;0.63;;;;;;;8.09;71.06;99196.50;10289576;29;20043;-69
2023/12/22 09:12:03;;;;;;;1.98;0.22;;;;;;;7.65;72.07;99200.06;10228836;28;20055;-68
2023/12/22 09:17:05;;;;;;;0.63;0.20;;;;;;;7.56;73.44;99179.78;10244864;28;20039;-66
2023/12/22 09:22:06;;;;;;;0.95;0.10;;;;;;;7.33;74.57;99187.91;10244220;29;20406;-64
2023/12/22 09:27:09;;;;;;;2.38;0.10;;;;;;;7.38;74.46;99188.19;10243088;29;20094;-65
2023/12/22 09:32:10;;;;;;;1.67;0.20;;;;;;;7.54;74.49;99198.72;10241029;29;20046;-63
2023/12/22 09:37:12;;;;;;;0.90;0.20;;;;;;;7.60;74.81;99199.78;10242916;28;20118;-65
2023/12/22 09:42:15;;;;;;;2.75;0.32;;;;;;;7.76;75.20;99161.34;10230975;28;20497;-65
2023/12/22 09:47:18;;;;;;;1.98;0.20;;;;;;;7.81;75.47;99177.63;10225066;29;20457;-66
2023/12/22 09:52:20;;;;;;;1.10;0.20;;;;;;;7.89;75.65;99156.13;10243495;28;20062;-66
2023/12/22 09:57:24;;;;;;;3.28;0.20;;;;;;;7.88;76.22;99154.47;10242487;28;20047;-66
2023/12/22 10:02:31;;;;;;;3.50;0.30;;;;;;;7.90;76.44;99146.28;10237010;28;20098;-66
2023/12/22 10:07:33;;;;;;;2.05;0.20;;;;;;;8.02;76.37;99158.13;10243954;28;20451;-66
2023/12/22 10:12:37;;;;;;;2.15;0.20;;;;;;;8.18;76.20;99130.31;10242973;28;20070;-67
2023/12/22 10:17:40;;;;;;;2.05;0.20;;;;;;;8.37;76.04;99128.00;10224811;28;20048;-67
2023/12/22 10:22:41;;;;;;;1.83;0.28;;;;;;;8.52;76.22;99123.44;10244186;28;20059;-67
2023/12/22 10:27:43;;;;;;;1.70;0.40;;;;;;;8.66;76.23;99114.47;10237310;29;20055;-67
2023/12/22 10:32:44;;;;;;;3.00;0.52;;;;;;;8.67;76.21;99096.56;10240943;29;20043;-67
2023/12/22 10:37:47;;;;;;;3.95;0.60;;;;;;;8.64;76.53;99083.56;10241302;29;20043;-67
2023/12/22 10:42:49;;;;;;;4.97;0.93;;;;;;;8.70;76.38;99066.69;10224693;29;20051;-66
2023/12/22 10:47:50;;;;;;;3.28;0.35;;;;;;;8.81;76.08;99060.00;10239556;28;20047;-67
2023/12/22 10:52:53;;;;;;;9.77;0.80;;;;;;;8.85;76.26;99047.84;10239805;29;20051;-67
2023/12/22 10:57:55;;;;;;;7.65;0.93;;;;;;;8.99;75.97;99032.66;10234994;28;20048;-64
2023/12/22 11:03:02;;;;;;;3.85;0.73;;;;;;;9.15;76.03;99016.25;10234226;28;20055;-64
2023/12/22 11:08:08;;;;;;;8.15;0.90;;;;;;;9.22;76.13;99010.91;10235120;28;20113;-68
2023/12/22 11:13:12;;;;;;;1.88;0.73;;;;;;;9.26;76.25;99022.88;10221790;28;20049;-67
2023/12/22 11:18:15;;;;;;;6.55;0.80;;;;;;;9.38;76.40;99009.72;10236296;29;20423;-68
2023/12/22 11:23:20;;;;;;;6.35;0.85;;;;;;;9.41;76.47;99001.28;10239040;28;20070;-67
2023/12/22 11:28:22;;;;;;;4.47;0.60;;;;;;;9.47;76.32;98993.25;10238208;28;20043;-67
2023/12/22 11:33:25;;;;;;;11.07;0.80;;;;;;;9.41;76.83;98993.22;10236929;29;20549;-67
2023/12/22 11:38:26;;;;;;;10.63;0.88;;;;;;;9.53;76.77;98975.50;10236639;28;20141;-67
2023/12/22 11:43:29;;;;;;;9.00;0.90;;;;;;;9.45;77.16;98975.69;10237639;29;20055;-67
2023/12/22 11:48:31;;;;;;;9.90;0.75;;;;;;;9.37;77.55;98968.66;10235982;28;20569;-67
2023/12/22 11:53:33;;;;;;;5.22;1.13;;;;;;;9.45;77.73;98959.63;10234975;29;20075;-65
2023/12/22 11:58:35;;;;;;;7.80;1.38;;;;;;;9.38;77.68;98959.59;10216108;28;20118;-69
2023/12/22 12:03:41;;;;;;;6.70;1.08;;;;;;;9.24;78.20;98948.03;10232168;28;20063;-69
2023/12/22 12:08:43;;;;;;;4.53;0.55;;;;;;;9.11;78.75;98927.34;10237503;28;20035;-67
2023/12/22 12:13:46;;;;;;;8.15;1.05;;;;;;;9.07;78.73;98930.63;10241442;28;20043;-68
2023/12/22 12:18:48;;;;;;;8.05;0.80;;;;;;;9.12;78.90;98915.63;10251085;28;20047;-68
2023/12/22 12:23:49;;;;;;;2.65;0.50;;;;;;;9.01;79.50;98924.22;10261980;28;20140;-65
2023/12/22 12:28:52;;;;;;;1.92;0.70;;;;;;;8.90;80.40;98927.47;10249880;28;20652;-67
2023/12/22 12:33:54;;;;;;;2.83;0.30;;;;;;;8.87;79.94;98935.94;10218522;29;20078;-67
2023/12/22 12:39:07;;;;;;;1.65;0.30;;;;;;;9.03;79.43;98940.94;10233998;28;20122;-67
2023/12/22 12:44:10;;;;;;;4.88;2.05;;;;;;;9.03;79.81;98940.13;10236992;28;20047;-69
2023/12/22 12:49:12;;;;;;;1.45;0.20;;;;;;;8.99;80.43;98915.56;10238712;28;20126;-68
2023/12/22 12:54:14;;;;;;;0.50;0.22;;;;;;;9.05;80.71;98927.34;10241918;29;20039;-65
2023/12/22 12:59:20;;;;;;;1.95;0.13;;;;;;;9.13;80.45;98944.06;10230490;28;20055;-65
2023/12/22 13:04:21;;;;;;;0.60;0.10;;;;;;;8.99;81.25;98945.03;10231175;28;20049;-68
2023/12/22 13:09:32;;;;;;;2.30;0.10;;;;;;;9.08;80.96;98938.50;10226168;29;20429;-69
2023/12/22 13:14:33;;;;;;;0.70;0.30;;;;;;;9.06;81.23;98942.38;10235262;28;20490;-68
2023/12/22 13:19:35;;;;;;;2.60;0.43;;;;;;;9.20;81.13;98951.28;10237134;28;20047;-67
2023/12/22 13:24:36;;;;;;;0.32;0.15;;;;;;;9.38;80.67;98916.69;10239249;28;20047;-68
2023/12/22 13:29:45;;;;;;;0.65;0.20;;;;;;;9.45;80.93;98927.44;10237436;28;20094;-68
2023/12/22 13:34:49;;;;;;;0.70;0.20;;;;;;;9.43;81.40;98937.53;10237725;29;20055;-66
2023/12/22 13:39:51;;;;;;;0.10;0.10;;;;;;;9.48;81.40;98918.97;10208810;28;20051;-66
2023/12/22 13:44:53;;;;;;;0.75;0.13;;;;;;;9.62;80.99;98920.66;10245379;28;20521;-68
2023/12/22 13:49:57;;;;;;;1.17;0.20;;;;;;;9.82;79.94;98920.66;10224470;28;20058;-67
2023/12/22 13:55:02;;;;;;;0.28;0.10;;;;;;;9.87;79.31;98918.19;10238496;28;20446;-68
2023/12/22 14:00:18;;;;;;;0.47;0.10;;;;;;;10.01;78.07;98913.63;10239987;28;20058;-68
2023/12/22 14:05:20;;;;;;;0.45;0.10;;;;;;;10.18;77.03;98902.44;10242240;29;20521;-69
2023/12/22 14:10:21;;;;;;;0.40;0.10;;;;;;;10.35;76.72;98919.81;10242664;29;20055;-70
2023/12/22 14:15:23;;;;;;;1.95;0.10;;;;;;;10.36;76.09;98912.56;10227395;29;20047;-69
2023/12/22 14:20:31;;;;;;;0.30;0.10;;;;;;;10.39;76.29;98912.97;10239692;28;20125;-69
2023/12/22 14:25:33;;;;;;;1.50;0.10;;;;;;;10.23;76.48;98908.84;10239161;29;20048;-69
2023/12/22 14:30:34;;;;;;;0.50;0.10;;;;;;;10.16;76.41;98926.00;10230171;28;20059;-67
2023/12/22 14:35:36;;;;;;;1.25;0.40;;;;;;;9.94;77.40;98920.84;10239273;28;20058;-67
2023/12/22 14:40:37;;;;;;;1.85;0.10;;;;;;;9.92;77.29;98934.47;10239899;28;20075;-67
2023/12/22 14:45:39;;;;;;;0.30;0.25;;;;;;;9.80;77.65;98930.75;10236160;29;20065;-68
2023/12/22 14:50:40;;;;;;;1.20;0.10;;;;;;;9.68;78.03;98938.59;10239406;28;20039;-68
2023/12/22 14:55:41;;;;;;;1.40;0.10;;;;;;;9.59;78.62;98952.41;10240561;29;20506;-67
2023/12/22 15:00:43;;;;;;;1.60;0.20;;;;;;;9.63;78.39;98964.38;10257056;28;20043;-68
2023/12/22 15:05:44;;;;;;;0.85;0.10;;;;;;;9.65;78.69;98954.28;10260851;28;20122;-66
2023/12/22 15:10:46;;;;;;;1.05;0.20;;;;;;;9.79;78.24;98947.88;10249708;29;20077;-67
2023/12/22 15:15:47;;;;;;;1.25;0.30;;;;;;;9.92;77.48;98953.25;10220593;29;20481;-66
2023/12/22 15:20:51;;;;;;;2.10;0.20;;;;;;;9.78;77.67;98953.47;10238736;29;20046;-67
2023/12/22 15:25:52;;;;;;;2.03;0.20;;;;;;;9.80;77.73;98946.88;10243361;29;20047;-66
2023/12/22 15:30:54;;;;;;;0.25;0.10;;;;;;;9.89;77.69;98961.75;10235897;28;20428;-66
2023/12/22 15:35:55;;;;;;;0.10;0.10;;;;;;;9.82;76.84;98977.00;10239315;29;20279;-66
2023/12/22 15:41:01;;;;;;;1.85;0.28;;;;;;;9.70;77.42;98973.28;10255592;29;20086;-65
2023/12/22 15:46:12;;;;;;;1.02;0.52;;;;;;;9.64;78.18;98969.56;10239206;29;20114;-65
2023/12/22 15:51:13;;;;;;;4.72;0.20;;;;;;;9.76;78.02;98974.31;10245759;28;20134;-64
2023/12/22 15:56:16;;;;;;;0.38;0.20;;;;;;;9.75;77.29;98988.75;10240611;29;20079;-65
2023/12/22 16:01:18;;;;;;;2.63;0.20;;;;;;;9.73;77.94;98997.84;10242049;28;20171;-66
2023/12/22 16:06:20;;;;;;;0.20;0.00;;;;;;;9.79;77.81;99014.97;10299272;23;20058;-84
2023/12/22 16:11:22;;;;;;;1.90;0.10;;;;;;;9.96;76.71;98987.75;10344779;28;20047;-83
2023/12/22 16:16:24;;;;;;;2.00;0.20;;;;;;;10.14;75.40;98993.31;10342620;28;20046;-84
2023/12/22 16:21:25;;;;;;;1.13;0.13;;;;;;;10.34;74.33;99006.78;10344505;28;20054;-84
2023/12/22 16:26:27;;;;;;;0.32;0.10;;;;;;;10.41;73.64;98991.50;10353337;28;20084;-83
2023/12/22 16:31:29;;;;;;;0.57;0.10;;;;;;;10.49;73.54;99006.56;10369893;28;20042;-85
2023/12/22 16:36:30;;;;;;;0.57;0.10;;;;;;;10.17;74.15;99017.09;10307203;28;20054;-84
2023/12/22 16:41:37;;;;;;;0.93;0.10;;;;;;;9.98;75.00;99012.53;10294129;28;20066;-84
2023/12/22 16:46:39;;;;;;;0.15;0.10;;;;;;;9.81;75.99;99045.13;10313838;28;20267;-84
2023/12/22 16:51:41;;;;;;;0.32;0.17;;;;;;;9.67;76.40;99030.84;10293718;28;20050;-84
2023/12/22 16:56:43;;;;;;;0.22;0.00;;;;;;;9.65;77.10;99034.75;10294880;28;20059;-84
2023/12/22 17:01:46;;;;;;;0.10;0.10;;;;;;;9.70;77.39;99041.19;10303579;28;20047;-84
2023/12/22 17:06:50;;;;;;;2.63;0.68;;;;;;;9.77;77.13;99043.06;10265868;28;20076;-84
2023/12/22 17:11:52;;;;;;;1.95;0.20;;;;;;;9.93;76.98;99037.28;10280392;28;20114;-83
2023/12/22 17:16:54;;;;;;;2.22;0.10;;;;;;;10.12;75.40;99036.50;10291939;28;20484;-84
2023/12/22 17:21:55;;;;;;;0.65;0.65;;;;;;;10.33;74.08;99069.59;10297327;28;20034;-86
2023/12/22 17:26:57;;;;;;;0.20;0.10;;;;;;;10.54;73.63;99038.19;10304759;28;20045;-84
2023/12/22 17:32:00;;;;;;;1.55;0.10;;;;;;;10.63;73.39;99070.00;10305281;28;20050;-90
2023/12/22 17:37:34;;;;;;;;;;;;;;;;;;;;;
2023/12/22 17:42:57;;;;;;;1.55;0.10;;;;;;;10.84;70.83;99023.25;10329687;28;20042;-69
2023/12/22 17:47:58;;;;;;;2.28;0.10;;;;;;;10.94;70.83;99012.06;10369567;28;20042;-67
2023/12/22 17:53:00;;;;;;;1.77;0.10;;;;;;;11.15;69.38;99018.19;10368604;28;20041;-67
2023/12/22 17:58:02;;;;;;;1.02;0.52;;;;;;;11.24;68.38;99000.78;10355930;28;20030;-67
2023/12/22 18:03:04;;;;;;;0.17;0.10;;;;;;;11.31;67.72;99028.47;10381959;28;20046;-67
2023/12/22 18:08:06;;;;;;;0.73;0.10;;;;;;;11.45;67.19;99083.88;10376282;28;20058;-67
2023/12/22 18:13:07;;;;;;;1.85;0.28;;;;;;;11.36;67.79;99060.13;10374090;28;20052;-67
2023/12/22 18:18:09;;;;;;;1.13;0.20;;;;;;;11.46;67.79;99072.06;10374596;28;20033;-65
2023/12/22 18:23:10;;;;;;;0.30;0.10;;;;;;;11.62;67.32;99067.25;10372407;28;20085;-65
2023/12/22 18:28:12;;;;;;;0.40;0.10;;;;;;;11.68;66.40;99091.44;10371341;28;20074;-66
2023/12/22 18:33:14;;;;;;;0.38;0.10;;;;;;;11.78;65.79;99090.16;10379840;28;20065;-65
2023/12/22 18:38:15;;;;;;;0.90;0.10;;;;;;;11.80;65.22;99102.34;10376625;28;20046;-64
2023/12/22 18:43:17;;;;;;;2.60;0.13;;;;;;;11.80;65.55;99085.38;10388677;28;20035;-65
2023/12/22 18:48:18;;;;;;;1.75;0.38;;;;;;;11.76;66.51;99084.16;10376356;28;20038;-66
2023/12/22 18:53:20;;;;;;;2.72;1.00;;;;;;;11.79;65.79;99089.94;10375797;28;20050;-65
2023/12/22 18:58:22;;;;;;;1.38;0.17;;;;;;;11.83;64.80;99101.13;10367290;28;20065;-65
2023/12/22 19:03:23;;;;;;;0.77;0.20;;;;;;;11.84;65.69;99108.13;10372494;28;20058;-66
2023/12/22 19:08:25;;;;;;;1.52;0.10;;;;;;;11.92;64.84;99102.53;10342083;23;20047;-87
2023/12/22 19:13:27;;;;;;;2.72;0.20;;;;;;;11.99;64.58;99108.72;10267061;28;20070;-87
2023/12/22 19:18:29;;;;;;;1.48;0.13;;;;;;;11.52;65.68;99114.28;10282202;28;20039;-86
2023/12/22 19:23:31;;;;;;;0.93;0.20;;;;;;;11.29;66.89;99095.09;10260539;28;20039;-87
2023/12/22 19:28:32;;;;;;;1.33;0.20;;;;;;;11.58;66.40;99149.47;10271077;28;20082;-87
2023/12/22 19:33:35;;;;;;;0.70;0.20;;;;;;;11.73;64.36;99144.66;10258590;28;20057;-87
2023/12/22 19:38:37;;;;;;;3.05;0.40;;;;;;;11.88;63.96;99138.97;10259526;28;20139;-87
2023/12/22 19:43:39;;;;;;;1.30;0.57;;;;;;;11.82;63.96;99121.00;10260836;28;20220;-88
2023/12/22 19:48:40;;;;;;;2.05;0.20;;;;;;;11.62;64.96;99139.91;10264935;28;20054;-88
2023/12/22 19:53:42;;;;;;;1.65;0.10;;;;;;;11.34;66.43;99137.53;10261423;28;20058;-87
2023/12/22 19:58:44;;;;;;;2.17;0.10;;;;;;;11.32;66.11;99141.25;10240257;28;20066;-85
2023/12/22 20:03:45;;;;;;;1.02;0.65;;;;;;;11.54;65.39;99178.66;10234103;28;20062;-86
2023/12/22 20:08:47;;;;;;;0.40;0.20;;;;;;;11.19;66.46;99168.16;10232619;28;20139;-85
2023/12/22 20:13:49;;;;;;;2.25;0.47;;;;;;;10.74;68.63;99186.78;10230627;28;20082;-86
2023/12/22 20:18:50;;;;;;;1.13;0.45;;;;;;;10.41;69.26;99176.84;10228740;28;20099;-86
2023/12/22 20:23:53;;;;;;;0.17;0.10;;;;;;;10.18;70.03;99179.84;10280036;23;20039;-60
2023/12/22 20:28:55;;;;;;;0.38;0.10;;;;;;;10.39;69.31;99186.97;10294450;28;20042;-59
2023/12/22 20:33:57;;;;;;;6.85;0.30;;;;;;;10.78;67.08;99168.41;10298447;28;20465;-62
2023/12/22 20:38:58;;;;;;;1.55;0.30;;;;;;;11.09;66.21;99160.53;10295079;28;20031;-65
2023/12/22 20:44:00;;;;;;;1.50;0.10;;;;;;;11.25;65.37;99194.22;10318683;23;20118;-84
2023/12/22 20:49:03;;;;;;;1.50;0.20;;;;;;;10.73;67.28;99208.53;10294436;28;20133;-83
2023/12/22 20:54:05;;;;;;;2.15;0.30;;;;;;;10.04;70.68;99203.16;10309532;28;20057;-84
2023/12/22 20:59:07;;;;;;;3.40;0.20;;;;;;;9.61;74.35;99226.69;10307834;28;20047;-86
2023/12/22 21:04:09;;;;;;;0.80;0.30;;;;;;;9.48;74.89;99247.06;10305701;28;20046;-85
2023/12/22 21:09:11;;;;;;;1.63;0.20;;;;;;;9.26;76.35;99240.91;10303426;28;20043;-87
2023/12/22 21:14:12;;;;;;;2.78;0.50;;;;;;;9.13;77.04;99227.41;10312245;28;20053;-87
2023/12/22 21:19:14;;;;;;;3.30;0.57;;;;;;;9.26;76.70;99219.47;10306741;28;20050;-86
2023/12/22 21:24:16;;;;;;;1.08;0.30;;;;;;;9.34;76.72;99215.81;10313732;28;20058;-86
2023/12/22 21:29:18;;;;;;;2.83;0.20;;;;;;;9.60;74.00;99214.31;10312840;28;20357;-88
2023/12/22 21:34:19;;;;;;;1.42;0.38;;;;;;;9.80;72.83;99227.84;10288711;28;20106;-88
2023/12/22 21:39:21;;;;;;;0.68;0.20;;;;;;;10.02;71.20;99221.31;10264249;28;20051;-87
2023/12/22 21:44:23;;;;;;;1.95;0.52;;;;;;;10.28;68.54;99234.00;10264792;28;20046;-86
2023/12/22 21:49:25;;;;;;;1.95;0.85;;;;;;;10.53;66.98;99249.63;10261390;28;20094;-85
2023/12/22 21:54:27;;;;;;;3.10;0.30;;;;;;;10.82;65.01;99224.25;10259024;28;20050;-87
2023/12/22 21:59:29;;;;;;;1.15;0.20;;;;;;;11.01;64.20;99241.41;10279824;28;20093;-88
2023/12/22 22:04:30;;;;;;;2.42;0.20;;;;;;;11.02;64.63;99251.16;10282906;28;20142;-84
2023/12/22 22:09:32;;;;;;;2.55;0.47;;;;;;;10.99;64.89;99253.41;10288294;28;20035;-86
2023/12/22 22:14:34;;;;;;;0.22;0.20;;;;;;;10.78;65.61;99289.34;10293645;28;20109;-84
2023/12/22 22:19:35;;;;;;;7.80;0.28;;;;;;;10.17;68.27;99317.00;10288523;28;20075;-85
2023/12/22 22:24:37;;;;;;;4.68;0.73;;;;;;;9.96;69.58;99283.03;10282192;28;20045;-84
2023/12/22 22:29:40;;;;;;;1.80;0.20;;;;;;;9.99;69.28;99288.00;10271772;28;20413;-84
2023/12/22 22:34:42;;;;;;;2.00;0.28;;;;;;;10.01;67.24;99302.91;10266884;28;20071;-84
2023/12/22 22:39:44;;;;;;;1.98;0.28;;;;;;;10.07;67.57;99307.47;10261035;28;20047;-85
2023/12/22 22:44:45;;;;;;;4.97;0.75;;;;;;;10.02;68.72;99333.25;10265839;28;20051;-84
2023/12/22 22:49:47;;;;;;;2.33;0.20;;;;;;;9.85;70.42;99330.03;10285730;28;20078;-84
2023/12/22 22:54:50;;;;;;;2.33;0.13;;;;;;;9.92;70.08;99341.66;10273906;28;20051;-84
2023/12/22 22:59:51;;;;;;;1.40;0.32;;;;;;;9.94;70.00;99366.47;10284468;28;20043;-84
2023/12/22 23:04:53;;;;;;;2.22;0.20;;;;;;;9.71;71.25;99418.50;10278760;28;20043;-83
2023/12/22 23:09:57;;;;;;;1.10;0.10;;;;;;;9.29;72.91;99425.53;10245748;28;20051;-85
2023/12/22 23:14:58;;;;;;;0.30;0.00;;;;;;;8.86;73.89;99436.19;10235756;28;20437;-84
2023/12/22 23:20:00;;;;;;;0.30;0.05;;;;;;;8.70;74.48;99431.88;10261893;28;20047;-85
2023/12/22 23:25:03;;;;;;;0.13;0.00;;;;;;;8.60;74.37;99446.59;10271369;28;20076;-85
2023/12/22 23:30:06;;;;;;;0.17;0.17;;;;;;;8.50;75.32;99458.41;10264310;28;20107;-85
2023/12/22 23:35:08;;;;;;;0.50;0.10;;;;;;;8.45;75.74;99484.91;10261244;28;20043;-84
2023/12/22 23:40:10;;;;;;;0.15;0.00;;;;;;;8.33;76.01;99492.53;10260140;28;20138;-85
2023/12/22 23:45:12;;;;;;;0.00;0.00;;;;;;;8.09;76.16;99515.00;10243357;28;20090;-84
2023/12/22 23:50:14;;;;;;;0.10;0.00;;;;;;;7.94;75.93;99522.16;10236718;28;20039;-85